sensor_id;sensor_type;location;lat;lon;timestamp;P1;durP1;ratioP1;P2;durP2;ratioP2
28862;SDS011;15994;51.796;13.006;2022-07-23T00:00:07;6.57;;;4.32;;
28862;SDS011;15994;51.796;13.006;2022-07-23T00:02:34;6.80;;;4.47;;
28862;SDS011;15994;51.796;13.006;2022-07-23T00:05:01;6.15;;;4.13;;
28862;SDS011;15994;51.796;13.006;2022-07-23T00:07:27;7.18;;;3.88;;
28862;SDS011;15994;51.796;13.006;2022-07-23T00:09:54;6.00;;;4.55;;
28862;SDS011;15994;51.796;13.006;2022-07-23T00:12:20;8.88;;;4.60;;
28862;SDS011;15994;51.796;13.006;2022-07-23T00:14:47;5.32;;;4.10;;
28862;SDS011;15994;51.796;13.006;2022-07-23T00:17:14;5.07;;;4.32;;
28862;SDS011;15994;51.796;13.006;2022-07-23T00:19:40;6.72;;;4.70;;
28862;SDS011;15994;51.796;13.006;2022-07-23T00:22:07;5.38;;;4.55;;
28862;SDS011;15994;51.796;13.006;2022-07-23T00:24:33;7.03;;;4.70;;
28862;SDS011;15994;51.796;13.006;2022-07-23T00:27:00;5.82;;;4.63;;
28862;SDS011;15994;51.796;13.006;2022-07-23T00:29:26;7.85;;;4.45;;
28862;SDS011;15994;51.796;13.006;2022-07-23T00:31:53;6.10;;;5.00;;
28862;SDS011;15994;51.796;13.006;2022-07-23T00:34:19;6.70;;;4.50;;
28862;SDS011;15994;51.796;13.006;2022-07-23T00:36:46;6.38;;;5.15;;
28862;SDS011;15994;51.796;13.006;2022-07-23T00:39:12;6.45;;;4.75;;
28862;SDS011;15994;51.796;13.006;2022-07-23T00:41:39;7.07;;;5.15;;
28862;SDS011;15994;51.796;13.006;2022-07-23T00:44:22;5.72;;;4.55;;
28862;SDS011;15994;51.796;13.006;2022-07-23T00:46:51;7.50;;;4.57;;
28862;SDS011;15994;51.796;13.006;2022-07-23T00:49:23;7.88;;;5.07;;
28862;SDS011;15994;51.796;13.006;2022-07-23T00:51:51;8.75;;;5.00;;
28862;SDS011;15994;51.796;13.006;2022-07-23T00:54:18;6.80;;;4.80;;
28862;SDS011;15994;51.796;13.006;2022-07-23T00:56:46;6.20;;;5.10;;
28862;SDS011;15994;51.796;13.006;2022-07-23T00:59:13;6.25;;;4.90;;
28862;SDS011;15994;51.796;13.006;2022-07-23T01:01:40;5.60;;;4.70;;
28862;SDS011;15994;51.796;13.006;2022-07-23T01:04:07;9.30;;;5.80;;
28862;SDS011;15994;51.796;13.006;2022-07-23T01:06:34;8.35;;;5.25;;
28862;SDS011;15994;51.796;13.006;2022-07-23T01:09:02;7.32;;;4.85;;
28862;SDS011;15994;51.796;13.006;2022-07-23T01:11:31;6.15;;;4.82;;
28862;SDS011;15994;51.796;13.006;2022-07-23T01:14:09;6.97;;;4.97;;
28862;SDS011;15994;51.796;13.006;2022-07-23T01:16:43;7.65;;;5.55;;
28862;SDS011;15994;51.796;13.006;2022-07-23T01:19:11;8.30;;;5.50;;
28862;SDS011;15994;51.796;13.006;2022-07-23T01:21:42;9.23;;;5.30;;
28862;SDS011;15994;51.796;13.006;2022-07-23T01:24:10;8.32;;;4.85;;
28862;SDS011;15994;51.796;13.006;2022-07-23T01:26:38;8.75;;;4.90;;
28862;SDS011;15994;51.796;13.006;2022-07-23T01:29:06;5.63;;;4.63;;
28862;SDS011;15994;51.796;13.006;2022-07-23T01:31:33;6.75;;;4.57;;
28862;SDS011;15994;51.796;13.006;2022-07-23T01:33:59;8.20;;;5.28;;
28862;SDS011;15994;51.796;13.006;2022-07-23T01:36:26;6.65;;;5.07;;
28862;SDS011;15994;51.796;13.006;2022-07-23T01:38:53;6.30;;;5.15;;
28862;SDS011;15994;51.796;13.006;2022-07-23T01:41:20;6.15;;;4.65;;
28862;SDS011;15994;51.796;13.006;2022-07-23T01:43:46;7.03;;;5.05;;
28862;SDS011;15994;51.796;13.006;2022-07-23T01:46:13;12.45;;;5.00;;
28862;SDS011;15994;51.796;13.006;2022-07-23T01:48:40;7.18;;;5.07;;
28862;SDS011;15994;51.796;13.006;2022-07-23T01:51:06;6.13;;;5.00;;
28862;SDS011;15994;51.796;13.006;2022-07-23T01:53:33;6.82;;;4.82;;
28862;SDS011;15994;51.796;13.006;2022-07-23T01:56:00;5.78;;;4.90;;
28862;SDS011;15994;51.796;13.006;2022-07-23T01:58:28;8.82;;;5.07;;
28862;SDS011;15994;51.796;13.006;2022-07-23T02:00:55;7.38;;;4.93;;
28862;SDS011;15994;51.796;13.006;2022-07-23T02:03:21;8.50;;;5.28;;
28862;SDS011;15994;51.796;13.006;2022-07-23T02:05:48;8.70;;;5.47;;
28862;SDS011;15994;51.796;13.006;2022-07-23T02:08:15;6.50;;;5.55;;
28862;SDS011;15994;51.796;13.006;2022-07-23T02:10:42;7.47;;;5.13;;
28862;SDS011;15994;51.796;13.006;2022-07-23T02:13:09;7.97;;;5.90;;
28862;SDS011;15994;51.796;13.006;2022-07-23T02:15:35;7.20;;;5.65;;
28862;SDS011;15994;51.796;13.006;2022-07-23T02:18:02;7.57;;;5.15;;
28862;SDS011;15994;51.796;13.006;2022-07-23T02:20:29;7.55;;;5.50;;
28862;SDS011;15994;51.796;13.006;2022-07-23T02:22:55;7.45;;;5.47;;
28862;SDS011;15994;51.796;13.006;2022-07-23T02:25:22;6.80;;;5.15;;
28862;SDS011;15994;51.796;13.006;2022-07-23T02:27:48;7.53;;;5.35;;
28862;SDS011;15994;51.796;13.006;2022-07-23T02:30:15;7.32;;;5.22;;
28862;SDS011;15994;51.796;13.006;2022-07-23T02:32:41;9.07;;;5.30;;
28862;SDS011;15994;51.796;13.006;2022-07-23T02:35:08;10.95;;;5.53;;
28862;SDS011;15994;51.796;13.006;2022-07-23T02:37:34;7.72;;;5.63;;
28862;SDS011;15994;51.796;13.006;2022-07-23T02:40:01;7.25;;;5.38;;
28862;SDS011;15994;51.796;13.006;2022-07-23T02:42:28;6.38;;;5.10;;
28862;SDS011;15994;51.796;13.006;2022-07-23T02:44:54;7.70;;;5.55;;
28862;SDS011;15994;51.796;13.006;2022-07-23T02:47:21;8.40;;;5.25;;
28862;SDS011;15994;51.796;13.006;2022-07-23T02:49:47;7.00;;;5.10;;
28862;SDS011;15994;51.796;13.006;2022-07-23T02:52:14;7.75;;;5.22;;
28862;SDS011;15994;51.796;13.006;2022-07-23T02:54:40;6.30;;;5.05;;
28862;SDS011;15994;51.796;13.006;2022-07-23T02:57:07;8.13;;;5.40;;
28862;SDS011;15994;51.796;13.006;2022-07-23T02:59:33;7.63;;;4.97;;
28862;SDS011;15994;51.796;13.006;2022-07-23T03:02:00;8.95;;;5.47;;
28862;SDS011;15994;51.796;13.006;2022-07-23T03:04:26;9.00;;;5.38;;
28862;SDS011;15994;51.796;13.006;2022-07-23T03:06:53;8.18;;;5.50;;
28862;SDS011;15994;51.796;13.006;2022-07-23T03:09:19;8.65;;;5.60;;
28862;SDS011;15994;51.796;13.006;2022-07-23T03:11:46;7.15;;;4.90;;
28862;SDS011;15994;51.796;13.006;2022-07-23T03:14:13;9.63;;;4.95;;
28862;SDS011;15994;51.796;13.006;2022-07-23T03:16:41;6.00;;;5.00;;
28862;SDS011;15994;51.796;13.006;2022-07-23T03:19:07;8.55;;;5.25;;
28862;SDS011;15994;51.796;13.006;2022-07-23T03:21:34;8.77;;;5.03;;
28862;SDS011;15994;51.796;13.006;2022-07-23T03:24:05;8.88;;;5.32;;
28862;SDS011;15994;51.796;13.006;2022-07-23T03:26:32;7.97;;;5.22;;
28862;SDS011;15994;51.796;13.006;2022-07-23T03:28:59;12.98;;;5.45;;
28862;SDS011;15994;51.796;13.006;2022-07-23T03:31:26;7.00;;;4.88;;
28862;SDS011;15994;51.796;13.006;2022-07-23T03:33:52;10.23;;;5.47;;
28862;SDS011;15994;51.796;13.006;2022-07-23T03:36:19;7.38;;;5.38;;
28862;SDS011;15994;51.796;13.006;2022-07-23T03:38:45;9.85;;;5.35;;
28862;SDS011;15994;51.796;13.006;2022-07-23T03:41:12;6.68;;;4.80;;
28862;SDS011;15994;51.796;13.006;2022-07-23T03:43:38;7.15;;;5.30;;
28862;SDS011;15994;51.796;13.006;2022-07-23T03:46:05;10.25;;;5.07;;
28862;SDS011;15994;51.796;13.006;2022-07-23T03:48:31;7.22;;;4.57;;
28862;SDS011;15994;51.796;13.006;2022-07-23T03:50:58;9.68;;;5.55;;
28862;SDS011;15994;51.796;13.006;2022-07-23T03:53:24;6.80;;;4.95;;
28862;SDS011;15994;51.796;13.006;2022-07-23T03:55:51;7.35;;;4.75;;
28862;SDS011;15994;51.796;13.006;2022-07-23T03:58:17;6.88;;;4.78;;
28862;SDS011;15994;51.796;13.006;2022-07-23T04:00:44;6.85;;;5.30;;
28862;SDS011;15994;51.796;13.006;2022-07-23T04:03:11;6.32;;;4.30;;
28862;SDS011;15994;51.796;13.006;2022-07-23T04:05:37;6.78;;;4.80;;
28862;SDS011;15994;51.796;13.006;2022-07-23T04:08:04;7.13;;;4.65;;
28862;SDS011;15994;51.796;13.006;2022-07-23T04:10:30;8.75;;;4.20;;
28862;SDS011;15994;51.796;13.006;2022-07-23T04:12:57;5.50;;;4.40;;
28862;SDS011;15994;51.796;13.006;2022-07-23T04:15:23;7.18;;;4.30;;
28862;SDS011;15994;51.796;13.006;2022-07-23T04:17:50;7.35;;;5.68;;
28862;SDS011;15994;51.796;13.006;2022-07-23T04:20:17;7.47;;;4.22;;
28862;SDS011;15994;51.796;13.006;2022-07-23T04:22:43;6.18;;;3.97;;
28862;SDS011;15994;51.796;13.006;2022-07-23T04:25:10;7.32;;;4.47;;
28862;SDS011;15994;51.796;13.006;2022-07-23T04:27:38;6.97;;;4.10;;
28862;SDS011;15994;51.796;13.006;2022-07-23T04:30:05;8.50;;;4.25;;
28862;SDS011;15994;51.796;13.006;2022-07-23T04:32:32;6.78;;;4.20;;
28862;SDS011;15994;51.796;13.006;2022-07-23T04:34:58;5.55;;;3.80;;
28862;SDS011;15994;51.796;13.006;2022-07-23T04:37:25;7.78;;;3.97;;
28862;SDS011;15994;51.796;13.006;2022-07-23T04:39:51;6.25;;;3.70;;
28862;SDS011;15994;51.796;13.006;2022-07-23T04:42:18;7.97;;;4.10;;
28862;SDS011;15994;51.796;13.006;2022-07-23T04:44:44;5.93;;;3.75;;
28862;SDS011;15994;51.796;13.006;2022-07-23T04:47:11;7.25;;;3.08;;
28862;SDS011;15994;51.796;13.006;2022-07-23T04:49:37;6.97;;;3.90;;
28862;SDS011;15994;51.796;13.006;2022-07-23T04:52:04;6.93;;;3.90;;
28862;SDS011;15994;51.796;13.006;2022-07-23T04:54:30;7.75;;;3.35;;
28862;SDS011;15994;51.796;13.006;2022-07-23T04:56:57;8.38;;;3.22;;
28862;SDS011;15994;51.796;13.006;2022-07-23T04:59:23;5.63;;;3.35;;
28862;SDS011;15994;51.796;13.006;2022-07-23T05:01:50;8.73;;;3.55;;
28862;SDS011;15994;51.796;13.006;2022-07-23T05:04:17;7.25;;;3.00;;
28862;SDS011;15994;51.796;13.006;2022-07-23T05:06:44;8.27;;;3.35;;
28862;SDS011;15994;51.796;13.006;2022-07-23T05:09:10;7.03;;;3.67;;
28862;SDS011;15994;51.796;13.006;2022-07-23T05:11:37;6.60;;;3.83;;
28862;SDS011;15994;51.796;13.006;2022-07-23T05:14:03;10.25;;;2.92;;
28862;SDS011;15994;51.796;13.006;2022-07-23T05:16:30;6.85;;;2.95;;
28862;SDS011;15994;51.796;13.006;2022-07-23T05:18:56;7.43;;;3.15;;
28862;SDS011;15994;51.796;13.006;2022-07-23T05:21:23;6.20;;;3.10;;
28862;SDS011;15994;51.796;13.006;2022-07-23T05:23:50;9.05;;;3.30;;
28862;SDS011;15994;51.796;13.006;2022-07-23T05:26:16;8.02;;;3.30;;
28862;SDS011;15994;51.796;13.006;2022-07-23T05:28:43;6.57;;;3.33;;
28862;SDS011;15994;51.796;13.006;2022-07-23T05:31:09;16.13;;;3.70;;
28862;SDS011;15994;51.796;13.006;2022-07-23T05:33:36;13.45;;;4.10;;
28862;SDS011;15994;51.796;13.006;2022-07-23T05:36:03;7.72;;;4.65;;
28862;SDS011;15994;51.796;13.006;2022-07-23T05:38:31;10.07;;;4.78;;
28862;SDS011;15994;51.796;13.006;2022-07-23T05:40:58;10.55;;;4.97;;
28862;SDS011;15994;51.796;13.006;2022-07-23T05:43:25;9.43;;;5.65;;
28862;SDS011;15994;51.796;13.006;2022-07-23T05:45:52;6.97;;;5.25;;
28862;SDS011;15994;51.796;13.006;2022-07-23T05:48:19;6.50;;;4.97;;
28862;SDS011;15994;51.796;13.006;2022-07-23T05:50:46;8.50;;;5.03;;
28862;SDS011;15994;51.796;13.006;2022-07-23T05:53:13;11.30;;;5.15;;
28862;SDS011;15994;51.796;13.006;2022-07-23T05:55:39;11.60;;;5.10;;
28862;SDS011;15994;51.796;13.006;2022-07-23T05:58:06;8.88;;;5.20;;
28862;SDS011;15994;51.796;13.006;2022-07-23T06:00:33;10.18;;;5.30;;
28862;SDS011;15994;51.796;13.006;2022-07-23T06:03:00;11.43;;;5.40;;
28862;SDS011;15994;51.796;13.006;2022-07-23T06:05:27;13.50;;;5.03;;
28862;SDS011;15994;51.796;13.006;2022-07-23T06:07:53;10.77;;;5.03;;
28862;SDS011;15994;51.796;13.006;2022-07-23T06:10:20;9.82;;;5.57;;
28862;SDS011;15994;51.796;13.006;2022-07-23T06:12:47;10.73;;;5.05;;
28862;SDS011;15994;51.796;13.006;2022-07-23T06:15:13;6.68;;;4.40;;
28862;SDS011;15994;51.796;13.006;2022-07-23T06:17:40;9.32;;;4.57;;
28862;SDS011;15994;51.796;13.006;2022-07-23T06:20:07;8.73;;;4.13;;
28862;SDS011;15994;51.796;13.006;2022-07-23T06:22:35;7.72;;;4.57;;
28862;SDS011;15994;51.796;13.006;2022-07-23T06:25:02;8.07;;;4.53;;
28862;SDS011;15994;51.796;13.006;2022-07-23T06:27:29;8.75;;;4.53;;
28862;SDS011;15994;51.796;13.006;2022-07-23T06:29:55;5.80;;;4.05;;
28862;SDS011;15994;51.796;13.006;2022-07-23T06:32:22;10.27;;;4.68;;
28862;SDS011;15994;51.796;13.006;2022-07-23T06:34:48;9.18;;;4.90;;
28862;SDS011;15994;51.796;13.006;2022-07-23T06:37:15;10.15;;;5.70;;
28862;SDS011;15994;51.796;13.006;2022-07-23T06:39:42;9.25;;;6.03;;
28862;SDS011;15994;51.796;13.006;2022-07-23T06:42:08;10.35;;;5.32;;
28862;SDS011;15994;51.796;13.006;2022-07-23T06:44:36;10.50;;;6.03;;
28862;SDS011;15994;51.796;13.006;2022-07-23T06:47:03;10.13;;;6.80;;
28862;SDS011;15994;51.796;13.006;2022-07-23T06:49:30;10.48;;;6.20;;
28862;SDS011;15994;51.796;13.006;2022-07-23T06:51:56;8.20;;;5.53;;
28862;SDS011;15994;51.796;13.006;2022-07-23T06:54:23;10.48;;;5.03;;
28862;SDS011;15994;51.796;13.006;2022-07-23T06:56:50;8.88;;;4.65;;
28862;SDS011;15994;51.796;13.006;2022-07-23T06:59:16;11.63;;;5.38;;
28862;SDS011;15994;51.796;13.006;2022-07-23T07:01:43;8.60;;;4.97;;
28862;SDS011;15994;51.796;13.006;2022-07-23T07:04:09;9.60;;;5.90;;
28862;SDS011;15994;51.796;13.006;2022-07-23T07:06:36;9.00;;;5.65;;
28862;SDS011;15994;51.796;13.006;2022-07-23T07:09:03;12.45;;;6.25;;
28862;SDS011;15994;51.796;13.006;2022-07-23T07:11:29;14.02;;;6.60;;
28862;SDS011;15994;51.796;13.006;2022-07-23T07:13:56;10.45;;;5.93;;
28862;SDS011;15994;51.796;13.006;2022-07-23T07:16:23;11.07;;;6.32;;
28862;SDS011;15994;51.796;13.006;2022-07-23T07:18:50;9.98;;;6.07;;
28862;SDS011;15994;51.796;13.006;2022-07-23T07:21:16;9.52;;;6.75;;
28862;SDS011;15994;51.796;13.006;2022-07-23T07:23:43;10.32;;;6.97;;
28862;SDS011;15994;51.796;13.006;2022-07-23T07:26:10;8.75;;;5.93;;
28862;SDS011;15994;51.796;13.006;2022-07-23T07:28:36;8.27;;;6.30;;
28862;SDS011;15994;51.796;13.006;2022-07-23T07:31:03;11.60;;;6.82;;
28862;SDS011;15994;51.796;13.006;2022-07-23T07:33:29;9.50;;;6.88;;
28862;SDS011;15994;51.796;13.006;2022-07-23T07:35:56;8.13;;;6.22;;
28862;SDS011;15994;51.796;13.006;2022-07-23T07:38:23;11.55;;;6.88;;
28862;SDS011;15994;51.796;13.006;2022-07-23T07:40:50;12.10;;;7.38;;
28862;SDS011;15994;51.796;13.006;2022-07-23T07:43:16;9.70;;;7.00;;
28862;SDS011;15994;51.796;13.006;2022-07-23T07:45:43;8.40;;;6.63;;
28862;SDS011;15994;51.796;13.006;2022-07-23T07:48:09;9.63;;;6.68;;
28862;SDS011;15994;51.796;13.006;2022-07-23T07:50:36;10.98;;;6.63;;
28862;SDS011;15994;51.796;13.006;2022-07-23T07:53:02;9.60;;;6.55;;
28862;SDS011;15994;51.796;13.006;2022-07-23T07:55:29;10.30;;;5.82;;
28862;SDS011;15994;51.796;13.006;2022-07-23T07:57:56;12.77;;;6.43;;
28862;SDS011;15994;51.796;13.006;2022-07-23T08:00:22;10.18;;;5.93;;
28862;SDS011;15994;51.796;13.006;2022-07-23T08:02:50;9.00;;;5.70;;
28862;SDS011;15994;51.796;13.006;2022-07-23T08:05:19;8.40;;;5.07;;
28862;SDS011;15994;51.796;13.006;2022-07-23T08:07:50;6.75;;;4.65;;
28862;SDS011;15994;51.796;13.006;2022-07-23T08:10:16;9.13;;;4.78;;
28862;SDS011;15994;51.796;13.006;2022-07-23T08:12:48;7.55;;;4.82;;
28862;SDS011;15994;51.796;13.006;2022-07-23T08:15:18;11.38;;;4.95;;
28862;SDS011;15994;51.796;13.006;2022-07-23T08:17:46;8.63;;;4.90;;
28862;SDS011;15994;51.796;13.006;2022-07-23T08:20:14;7.78;;;4.82;;
28862;SDS011;15994;51.796;13.006;2022-07-23T08:22:42;9.20;;;5.53;;
28862;SDS011;15994;51.796;13.006;2022-07-23T08:25:27;7.68;;;5.13;;
28862;SDS011;15994;51.796;13.006;2022-07-23T08:27:56;8.40;;;4.88;;
28862;SDS011;15994;51.796;13.006;2022-07-23T08:30:24;8.05;;;5.30;;
28862;SDS011;15994;51.796;13.006;2022-07-23T08:32:55;7.43;;;5.00;;
28862;SDS011;15994;51.796;13.006;2022-07-23T08:35:26;7.03;;;4.88;;
28862;SDS011;15994;51.796;13.006;2022-07-23T08:37:53;8.70;;;5.15;;
28862;SDS011;15994;51.796;13.006;2022-07-23T08:40:20;8.80;;;4.72;;
28862;SDS011;15994;51.796;13.006;2022-07-23T08:42:47;8.73;;;5.15;;
28862;SDS011;15994;51.796;13.006;2022-07-23T08:45:19;6.47;;;4.38;;
28862;SDS011;15994;51.796;13.006;2022-07-23T08:47:50;6.70;;;4.35;;
28862;SDS011;15994;51.796;13.006;2022-07-23T08:50:18;6.95;;;4.90;;
28862;SDS011;15994;51.796;13.006;2022-07-23T08:52:44;8.05;;;4.65;;
28862;SDS011;15994;51.796;13.006;2022-07-23T08:55:12;7.35;;;4.85;;
28862;SDS011;15994;51.796;13.006;2022-07-23T08:57:38;7.93;;;4.50;;
28862;SDS011;15994;51.796;13.006;2022-07-23T09:00:05;8.02;;;4.80;;
28862;SDS011;15994;51.796;13.006;2022-07-23T09:02:38;7.50;;;4.47;;
28862;SDS011;15994;51.796;13.006;2022-07-23T09:05:06;8.75;;;4.65;;
28862;SDS011;15994;51.796;13.006;2022-07-23T09:07:35;13.88;;;5.28;;
28862;SDS011;15994;51.796;13.006;2022-07-23T09:10:06;8.63;;;5.30;;
28862;SDS011;15994;51.796;13.006;2022-07-23T09:12:35;7.78;;;5.15;;
28862;SDS011;15994;51.796;13.006;2022-07-23T09:15:05;9.20;;;4.82;;
28862;SDS011;15994;51.796;13.006;2022-07-23T09:17:52;8.80;;;4.75;;
28862;SDS011;15994;51.796;13.006;2022-07-23T09:20:20;9.73;;;4.95;;
28862;SDS011;15994;51.796;13.006;2022-07-23T09:22:47;7.50;;;5.05;;
28862;SDS011;15994;51.796;13.006;2022-07-23T09:25:16;9.48;;;5.53;;
28862;SDS011;15994;51.796;13.006;2022-07-23T09:27:51;9.75;;;5.95;;
28862;SDS011;15994;51.796;13.006;2022-07-23T09:30:23;8.75;;;4.93;;
28862;SDS011;15994;51.796;13.006;2022-07-23T09:33:04;7.53;;;5.65;;
28862;SDS011;15994;51.796;13.006;2022-07-23T09:35:43;10.07;;;5.53;;
28862;SDS011;15994;51.796;13.006;2022-07-23T09:38:11;8.90;;;5.43;;
28862;SDS011;15994;51.796;13.006;2022-07-23T09:40:37;11.20;;;5.57;;
28862;SDS011;15994;51.796;13.006;2022-07-23T09:43:04;11.27;;;6.18;;
28862;SDS011;15994;51.796;13.006;2022-07-23T09:45:31;9.18;;;5.25;;
28862;SDS011;15994;51.796;13.006;2022-07-23T09:48:12;9.43;;;6.25;;
28862;SDS011;15994;51.796;13.006;2022-07-23T09:50:44;9.43;;;5.57;;
28862;SDS011;15994;51.796;13.006;2022-07-23T09:53:25;9.63;;;5.65;;
28862;SDS011;15994;51.796;13.006;2022-07-23T09:55:52;9.25;;;6.40;;
28862;SDS011;15994;51.796;13.006;2022-07-23T09:58:23;9.05;;;6.00;;
28862;SDS011;15994;51.796;13.006;2022-07-23T10:00:52;10.65;;;6.65;;
28862;SDS011;15994;51.796;13.006;2022-07-23T10:03:19;10.00;;;6.03;;
28862;SDS011;15994;51.796;13.006;2022-07-23T10:05:47;8.75;;;6.65;;
28862;SDS011;15994;51.796;13.006;2022-07-23T10:08:14;11.02;;;7.15;;
28862;SDS011;15994;51.796;13.006;2022-07-23T10:10:47;10.55;;;7.00;;
28862;SDS011;15994;51.796;13.006;2022-07-23T10:13:14;10.88;;;7.00;;
28862;SDS011;15994;51.796;13.006;2022-07-23T10:15:58;11.45;;;6.90;;
28862;SDS011;15994;51.796;13.006;2022-07-23T10:18:25;9.93;;;6.93;;
28862;SDS011;15994;51.796;13.006;2022-07-23T10:20:52;13.02;;;6.93;;
28862;SDS011;15994;51.796;13.006;2022-07-23T10:23:36;10.73;;;7.45;;
28862;SDS011;15994;51.796;13.006;2022-07-23T10:26:24;12.15;;;7.30;;
28862;SDS011;15994;51.796;13.006;2022-07-23T10:29:13;10.13;;;6.60;;
28862;SDS011;15994;51.796;13.006;2022-07-23T10:32:00;9.20;;;6.45;;
28862;SDS011;15994;51.796;13.006;2022-07-23T10:37:32;10.70;;;6.43;;
28862;SDS011;15994;51.796;13.006;2022-07-23T10:40:11;9.90;;;6.53;;
28862;SDS011;15994;51.796;13.006;2022-07-23T10:42:49;9.73;;;6.30;;
28862;SDS011;15994;51.796;13.006;2022-07-23T10:47:53;8.85;;;6.70;;
28862;SDS011;15994;51.796;13.006;2022-07-23T10:50:21;7.93;;;5.63;;
28862;SDS011;15994;51.796;13.006;2022-07-23T10:53:07;7.10;;;5.90;;
28862;SDS011;15994;51.796;13.006;2022-07-23T10:58:03;9.02;;;6.13;;
28862;SDS011;15994;51.796;13.006;2022-07-23T11:00:31;7.93;;;5.30;;
28862;SDS011;15994;51.796;13.006;2022-07-23T11:03:00;7.13;;;5.00;;
28862;SDS011;15994;51.796;13.006;2022-07-23T11:05:50;9.90;;;5.38;;
28862;SDS011;15994;51.796;13.006;2022-07-23T11:08:18;9.02;;;4.93;;
28862;SDS011;15994;51.796;13.006;2022-07-23T11:16:17;7.43;;;4.40;;
28862;SDS011;15994;51.796;13.006;2022-07-23T11:27:07;11.20;;;5.65;;
28862;SDS011;15994;51.796;13.006;2022-07-23T11:31:55;8.27;;;5.65;;
28862;SDS011;15994;51.796;13.006;2022-07-23T11:34:38;7.13;;;4.60;;
28862;SDS011;15994;51.796;13.006;2022-07-23T11:37:07;8.32;;;4.90;;
28862;SDS011;15994;51.796;13.006;2022-07-23T11:39:36;8.15;;;4.75;;
28862;SDS011;15994;51.796;13.006;2022-07-23T11:42:05;7.38;;;5.25;;
28862;SDS011;15994;51.796;13.006;2022-07-23T11:44:33;8.05;;;5.15;;
28862;SDS011;15994;51.796;13.006;2022-07-23T11:47:05;6.53;;;4.68;;
28862;SDS011;15994;51.796;13.006;2022-07-23T11:49:33;6.85;;;4.70;;
28862;SDS011;15994;51.796;13.006;2022-07-23T11:54:31;6.25;;;4.20;;
28862;SDS011;15994;51.796;13.006;2022-07-23T11:56:59;9.02;;;4.40;;
28862;SDS011;15994;51.796;13.006;2022-07-23T11:59:26;6.47;;;4.20;;
28862;SDS011;15994;51.796;13.006;2022-07-23T12:01:59;6.45;;;4.18;;
28862;SDS011;15994;51.796;13.006;2022-07-23T12:04:38;6.03;;;4.68;;
28862;SDS011;15994;51.796;13.006;2022-07-23T12:10:03;6.03;;;4.40;;
28862;SDS011;15994;51.796;13.006;2022-07-23T12:12:43;7.80;;;4.35;;
28862;SDS011;15994;51.796;13.006;2022-07-23T12:15:11;6.05;;;4.05;;
28862;SDS011;15994;51.796;13.006;2022-07-23T12:17:41;6.28;;;3.70;;
28862;SDS011;15994;51.796;13.006;2022-07-23T12:20:12;6.72;;;4.03;;
28862;SDS011;15994;51.796;13.006;2022-07-23T12:22:44;6.35;;;3.88;;
28862;SDS011;15994;51.796;13.006;2022-07-23T12:25:19;7.43;;;3.88;;
28862;SDS011;15994;51.796;13.006;2022-07-23T12:27:57;7.18;;;4.07;;
28862;SDS011;15994;51.796;13.006;2022-07-23T12:30:43;7.07;;;4.30;;
28862;SDS011;15994;51.796;13.006;2022-07-23T12:33:23;7.32;;;4.22;;
28862;SDS011;15994;51.796;13.006;2022-07-23T12:35:52;7.63;;;4.43;;
28862;SDS011;15994;51.796;13.006;2022-07-23T12:38:22;7.72;;;4.38;;
28862;SDS011;15994;51.796;13.006;2022-07-23T12:40:50;5.68;;;4.32;;
28862;SDS011;15994;51.796;13.006;2022-07-23T12:43:20;8.98;;;4.80;;
28862;SDS011;15994;51.796;13.006;2022-07-23T12:55:48;6.90;;;4.15;;
28862;SDS011;15994;51.796;13.006;2022-07-23T12:58:19;6.28;;;4.25;;
28862;SDS011;15994;51.796;13.006;2022-07-23T13:00:53;10.55;;;5.60;;
28862;SDS011;15994;51.796;13.006;2022-07-23T13:03:39;8.20;;;4.93;;
28862;SDS011;15994;51.796;13.006;2022-07-23T13:08:35;9.30;;;5.13;;
28862;SDS011;15994;51.796;13.006;2022-07-23T13:11:04;8.68;;;4.80;;
28862;SDS011;15994;51.796;13.006;2022-07-23T13:13:32;10.63;;;5.00;;
28862;SDS011;15994;51.796;13.006;2022-07-23T13:16:01;9.90;;;5.25;;
28862;SDS011;15994;51.796;13.006;2022-07-23T13:18:29;10.27;;;4.78;;
28862;SDS011;15994;51.796;13.006;2022-07-23T13:20:56;9.02;;;4.57;;
28862;SDS011;15994;51.796;13.006;2022-07-23T13:23:23;6.25;;;4.20;;
28862;SDS011;15994;51.796;13.006;2022-07-23T13:25:50;6.07;;;4.03;;
28862;SDS011;15994;51.796;13.006;2022-07-23T13:28:18;8.23;;;4.50;;
28862;SDS011;15994;51.796;13.006;2022-07-23T13:30:45;7.00;;;4.03;;
28862;SDS011;15994;51.796;13.006;2022-07-23T13:33:14;6.05;;;3.92;;
28862;SDS011;15994;51.796;13.006;2022-07-23T13:35:42;7.63;;;4.13;;
28862;SDS011;15994;51.796;13.006;2022-07-23T13:38:09;5.78;;;4.22;;
28862;SDS011;15994;51.796;13.006;2022-07-23T13:40:36;7.65;;;4.00;;
28862;SDS011;15994;51.796;13.006;2022-07-23T13:43:06;6.95;;;4.22;;
28862;SDS011;15994;51.796;13.006;2022-07-23T13:45:33;8.00;;;4.10;;
28862;SDS011;15994;51.796;13.006;2022-07-23T13:48:00;5.57;;;4.00;;
28862;SDS011;15994;51.796;13.006;2022-07-23T13:50:28;5.20;;;3.38;;
28862;SDS011;15994;51.796;13.006;2022-07-23T13:52:54;7.28;;;3.85;;
28862;SDS011;15994;51.796;13.006;2022-07-23T13:55:21;6.40;;;3.75;;
28862;SDS011;15994;51.796;13.006;2022-07-23T13:57:48;6.72;;;3.63;;
28862;SDS011;15994;51.796;13.006;2022-07-23T14:00:15;6.22;;;3.88;;
28862;SDS011;15994;51.796;13.006;2022-07-23T14:02:42;5.65;;;3.70;;
28862;SDS011;15994;51.796;13.006;2022-07-23T14:05:09;6.47;;;3.72;;
28862;SDS011;15994;51.796;13.006;2022-07-23T14:07:37;9.65;;;3.92;;
28862;SDS011;15994;51.796;13.006;2022-07-23T14:10:05;8.18;;;3.58;;
28862;SDS011;15994;51.796;13.006;2022-07-23T14:12:33;5.13;;;3.60;;
28862;SDS011;15994;51.796;13.006;2022-07-23T14:14:59;6.68;;;3.50;;
28862;SDS011;15994;51.796;13.006;2022-07-23T14:17:26;7.65;;;3.75;;
28862;SDS011;15994;51.796;13.006;2022-07-23T14:19:53;7.22;;;3.42;;
28862;SDS011;15994;51.796;13.006;2022-07-23T14:22:19;5.85;;;3.30;;
28862;SDS011;15994;51.796;13.006;2022-07-23T14:24:46;7.57;;;3.78;;
28862;SDS011;15994;51.796;13.006;2022-07-23T14:27:13;5.22;;;3.35;;
28862;SDS011;15994;51.796;13.006;2022-07-23T14:29:39;4.50;;;3.10;;
28862;SDS011;15994;51.796;13.006;2022-07-23T14:32:06;7.50;;;3.30;;
28862;SDS011;15994;51.796;13.006;2022-07-23T14:34:33;4.53;;;3.10;;
28862;SDS011;15994;51.796;13.006;2022-07-23T14:37:00;6.35;;;3.40;;
28862;SDS011;15994;51.796;13.006;2022-07-23T14:39:26;9.43;;;3.38;;
28862;SDS011;15994;51.796;13.006;2022-07-23T14:41:53;5.72;;;3.00;;
28862;SDS011;15994;51.796;13.006;2022-07-23T14:44:20;5.18;;;3.33;;
28862;SDS011;15994;51.796;13.006;2022-07-23T14:46:46;6.60;;;3.25;;
28862;SDS011;15994;51.796;13.006;2022-07-23T14:49:13;6.53;;;3.25;;
28862;SDS011;15994;51.796;13.006;2022-07-23T14:51:39;6.32;;;3.15;;
28862;SDS011;15994;51.796;13.006;2022-07-23T14:54:07;4.82;;;3.10;;
28862;SDS011;15994;51.796;13.006;2022-07-23T14:56:34;5.90;;;3.17;;
28862;SDS011;15994;51.796;13.006;2022-07-23T14:59:01;6.35;;;3.13;;
28862;SDS011;15994;51.796;13.006;2022-07-23T15:01:29;7.63;;;3.00;;
28862;SDS011;15994;51.796;13.006;2022-07-23T15:03:55;7.22;;;3.00;;
28862;SDS011;15994;51.796;13.006;2022-07-23T15:06:22;8.80;;;3.22;;
28862;SDS011;15994;51.796;13.006;2022-07-23T15:08:49;5.80;;;3.17;;
28862;SDS011;15994;51.796;13.006;2022-07-23T15:11:16;7.15;;;3.03;;
28862;SDS011;15994;51.796;13.006;2022-07-23T15:13:43;5.20;;;2.70;;
28862;SDS011;15994;51.796;13.006;2022-07-23T15:16:10;7.35;;;3.40;;
28862;SDS011;15994;51.796;13.006;2022-07-23T15:18:42;7.22;;;2.90;;
28862;SDS011;15994;51.796;13.006;2022-07-23T15:21:10;8.77;;;3.40;;